Time;durP1;ratioP1;P1;durP2;ratioP2;P2;SDS_P1;SDS_P2;PMS_P1;PMS_P2;Temp;Humidity;BMP_temperature;BMP_pressure;BME280_temperature;BME280_humidity;BME280_pressure;Samples;Min_cycle;Max_cycle;Signal;HPM_P1;HPM_P2
2023/11/04 00:00:03;;;;;;;6.53;3.63;;;;;;;9.15;100.00;98404.31;5092157;28;20051;-47
2023/11/04 00:02:33;;;;;;;6.30;3.97;;;;;;;9.09;100.00;98408.34;5092426;28;20048;-46
2023/11/04 00:05:01;;;;;;;7.20;3.55;;;;;;;8.85;100.00;98415.69;5090920;28;20410;-53
2023/11/04 00:07:30;;;;;;;8.70;4.10;;;;;;;8.92;100.00;98419.53;5092348;28;20048;-47
2023/11/04 00:09:59;;;;;;;6.68;4.22;;;;;;;8.97;100.00;98422.66;5092327;28;20048;-46
2023/11/04 00:12:30;;;;;;;8.57;4.00;;;;;;;9.15;100.00;98437.09;5092115;28;20048;-46
2023/11/04 00:14:58;;;;;;;6.22;3.67;;;;;;;9.10;100.00;98444.63;5092131;28;20048;-46
2023/11/04 00:17:27;;;;;;;7.50;4.30;;;;;;;9.09;100.00;98445.59;5092320;28;20055;-46
2023/11/04 00:19:57;;;;;;;6.40;4.05;;;;;;;9.02;100.00;98433.78;5092042;28;20044;-46
2023/11/04 00:22:25;;;;;;;7.05;4.50;;;;;;;9.19;100.00;98437.69;5039283;28;1499574;-47
2023/11/04 00:24:53;;;;;;;7.63;4.43;;;;;;;9.07;100.00;98439.56;5092870;28;20179;-45
2023/11/04 00:27:22;;;;;;;6.53;4.32;;;;;;;9.07;100.00;98436.91;5092632;28;20058;-46
2023/11/04 00:29:50;;;;;;;8.40;4.40;;;;;;;9.04;100.00;98434.47;5093035;28;20549;-45
2023/11/04 00:32:22;;;;;;;6.30;4.07;;;;;;;9.10;100.00;98439.31;5092963;28;20052;-45
2023/11/04 00:34:50;;;;;;;8.60;4.85;;;;;;;9.04;100.00;98439.81;5092858;28;20795;-45
2023/11/04 00:37:20;;;;;;;7.30;4.78;;;;;;;9.07;100.00;98433.38;5092903;28;20074;-45
2023/11/04 00:39:50;;;;;;;7.18;4.50;;;;;;;8.95;100.00;98431.72;5092571;28;20070;-47
2023/11/04 00:42:18;;;;;;;7.40;4.55;;;;;;;8.93;100.00;98429.22;5092486;28;20519;-45
2023/11/04 00:44:47;;;;;;;8.00;4.60;;;;;;;8.91;100.00;98425.84;5092367;28;20051;-45
2023/11/04 00:47:15;;;;;;;8.10;4.72;;;;;;;9.00;100.00;98422.41;5092768;28;20071;-47
2023/11/04 00:49:44;;;;;;;9.25;4.70;;;;;;;9.01;100.00;98417.94;5092416;28;20093;-46
2023/11/04 00:52:12;;;;;;;6.90;4.32;;;;;;;8.97;100.00;98417.34;5091726;28;20059;-46
2023/11/04 00:54:42;;;;;;;8.43;4.50;;;;;;;8.96;100.00;98434.25;5092416;28;20101;-48
2023/11/04 00:57:11;;;;;;;6.78;4.32;;;;;;;8.79;100.00;98434.81;5092652;28;20050;-45
2023/11/04 00:59:39;;;;;;;8.30;4.90;;;;;;;8.83;100.00;98425.63;5092518;28;20127;-46
2023/11/04 01:02:10;;;;;;;7.72;4.25;;;;;;;8.78;100.00;98427.78;5092708;28;20113;-46
2023/11/04 01:04:38;;;;;;;8.77;4.80;;;;;;;8.85;100.00;98423.66;5092375;28;20131;-47
2023/11/04 01:07:06;;;;;;;6.68;4.35;;;;;;;8.97;100.00;98422.66;5092130;28;20044;-46
2023/11/04 01:09:34;;;;;;;10.18;4.80;;;;;;;8.93;100.00;98421.22;5092009;28;20051;-46
2023/11/04 01:12:07;;;;;;;7.15;4.35;;;;;;;9.00;100.00;98432.22;5091972;28;20408;-49
2023/11/04 01:14:35;;;;;;;7.30;4.32;;;;;;;9.09;100.00;98426.97;5092098;28;20097;-46
2023/11/04 01:17:04;;;;;;;7.68;4.32;;;;;;;9.00;100.00;98425.06;5091885;28;20048;-45
2023/11/04 01:19:32;;;;;;;7.70;4.53;;;;;;;8.88;100.00;98423.44;5091665;28;20063;-46
2023/11/04 01:22:01;;;;;;;6.75;4.28;;;;;;;8.81;100.00;98422.25;5091671;28;20143;-46
2023/11/04 01:24:29;;;;;;;7.97;5.00;;;;;;;8.79;100.00;98425.03;5091853;28;20075;-45
2023/11/04 01:26:57;;;;;;;9.90;4.15;;;;;;;8.63;100.00;98419.25;5091552;28;20048;-45
2023/11/04 01:29:26;;;;;;;6.57;4.03;;;;;;;8.78;100.00;98423.34;5091328;28;20090;-44
2023/11/04 01:31:55;;;;;;;6.32;3.92;;;;;;;8.75;100.00;98423.56;5091428;28;20058;-45
2023/11/04 01:34:23;;;;;;;6.75;4.03;;;;;;;8.72;100.00;98433.63;5091394;28;20130;-46
2023/11/04 01:36:52;;;;;;;6.53;4.40;;;;;;;8.57;100.00;98431.22;5091786;28;20048;-45
2023/11/04 01:39:20;;;;;;;7.97;4.28;;;;;;;8.59;100.00;98431.13;5091223;28;20466;-46
2023/11/04 01:41:49;;;;;;;8.75;4.07;;;;;;;8.50;100.00;98430.06;5091269;28;20048;-46
2023/11/04 01:44:17;;;;;;;9.25;4.53;;;;;;;8.17;100.00;98422.91;5091486;28;20094;-45
2023/11/04 01:46:47;;;;;;;6.38;3.83;;;;;;;8.39;100.00;98435.34;5090965;28;20059;-44
2023/11/04 01:49:18;;;;;;;6.40;4.18;;;;;;;8.71;100.00;98439.91;5091679;28;20148;-47
2023/11/04 01:51:47;;;;;;;7.38;4.50;;;;;;;8.64;100.00;98438.72;5091330;28;20140;-45
2023/11/04 01:54:16;;;;;;;6.68;3.83;;;;;;;8.73;100.00;98441.47;5091404;28;20058;-48
2023/11/04 01:56:44;;;;;;;7.18;4.18;;;;;;;8.77;100.00;98442.91;5091181;28;20123;-46
2023/11/04 01:59:13;;;;;;;6.75;4.53;;;;;;;8.83;100.00;98446.88;5090966;28;20470;-46
2023/11/04 02:01:45;;;;;;;7.93;4.25;;;;;;;8.98;100.00;98450.97;5091183;28;20455;-45
2023/11/04 02:04:17;;;;;;;6.67;4.10;;;;;;;8.88;100.00;98456.19;5090991;28;20130;-44
2023/11/04 02:06:45;;;;;;;6.93;4.50;;;;;;;8.73;100.00;98462.75;5090627;28;20052;-46
2023/11/04 02:09:15;;;;;;;9.43;5.10;;;;;;;8.67;100.00;98463.22;5090841;28;20070;-46
2023/11/04 02:11:44;;;;;;;7.30;4.78;;;;;;;8.84;100.00;98464.53;5090984;28;20052;-46
2023/11/04 02:14:12;;;;;;;8.35;4.72;;;;;;;8.80;100.00;98455.13;5091220;28;20056;-47
2023/11/04 02:16:41;;;;;;;7.30;4.70;;;;;;;8.75;100.00;98442.19;5091102;28;20055;-45
2023/11/04 02:19:09;;;;;;;8.00;5.20;;;;;;;8.55;100.00;98433.16;5090924;28;20044;-45
2023/11/04 02:21:39;;;;;;;6.53;4.30;;;;;;;8.74;100.00;98443.16;5091037;28;20044;-46
2023/11/04 02:24:09;;;;;;;6.43;4.20;;;;;;;8.72;100.00;98454.88;5090675;28;20554;-46
2023/11/04 02:26:36;;;;;;;7.82;4.38;;;;;;;8.78;100.00;98465.00;5090700;28;20052;-45
2023/11/04 02:29:04;;;;;;;6.15;4.65;;;;;;;8.82;100.00;98471.78;5090911;28;20054;-44
2023/11/04 02:31:33;;;;;;;7.07;4.35;;;;;;;8.81;100.00;98465.63;5091463;28;20117;-46
2023/11/04 02:34:02;;;;;;;7.38;4.45;;;;;;;8.68;100.00;98459.59;5092392;28;20498;-45
2023/11/04 02:36:35;;;;;;;8.30;4.53;;;;;;;8.65;100.00;98461.66;5092338;28;20044;-45
2023/11/04 02:39:06;;;;;;;6.35;4.00;;;;;;;8.83;100.00;98468.16;5091726;28;20052;-46
2023/11/04 02:41:34;;;;;;;7.38;3.95;;;;;;;8.85;100.00;98468.88;5092350;28;20052;-46
2023/11/04 02:44:02;;;;;;;6.57;3.78;;;;;;;8.72;100.00;98460.22;5092256;28;20425;-47
2023/11/04 02:46:31;;;;;;;7.15;3.95;;;;;;;8.84;100.00;98448.56;5092132;28;20051;-46
2023/11/04 02:48:59;;;;;;;5.57;3.63;;;;;;;8.76;100.00;98440.38;5092415;28;20051;-44
2023/11/04 02:51:27;;;;;;;4.93;3.40;;;;;;;8.70;100.00;98441.72;5092107;28;20456;-46
2023/11/04 02:53:56;;;;;;;6.13;3.22;;;;;;;8.69;100.00;98439.19;5091944;28;20550;-45
2023/11/04 02:56:25;;;;;;;5.15;3.13;;;;;;;8.43;100.00;98436.81;5092596;28;20131;-44
2023/11/04 02:58:54;;;;;;;5.28;3.28;;;;;;;8.63;100.00;98439.69;5093019;28;20068;-46
2023/11/04 03:01:23;;;;;;;4.85;3.03;;;;;;;8.54;100.00;98441.28;5092731;28;20052;-47
2023/11/04 03:03:51;;;;;;;4.80;3.05;;;;;;;8.48;100.00;98437.28;5091886;28;20051;-46
2023/11/04 03:06:23;;;;;;;4.43;2.70;;;;;;;8.55;100.00;98442.97;5091614;28;20048;-47
2023/11/04 03:08:52;;;;;;;4.90;3.03;;;;;;;8.57;100.00;98455.16;5091494;28;20140;-46
2023/11/04 03:11:22;;;;;;;5.43;2.80;;;;;;;8.63;100.00;98458.28;5091419;28;20048;-46
2023/11/04 03:13:53;;;;;;;5.10;3.05;;;;;;;8.74;100.00;98458.25;5091638;28;20048;-45
2023/11/04 03:16:22;;;;;;;5.25;3.00;;;;;;;8.65;100.00;98459.00;5093886;28;20393;-46
2023/11/04 03:18:51;;;;;;;6.28;2.88;;;;;;;8.78;100.00;98457.91;5094330;28;20396;-45
2023/11/04 03:21:20;;;;;;;5.90;2.97;;;;;;;8.49;100.00;98470.88;5094185;28;20416;-45
2023/11/04 03:23:48;;;;;;;4.45;2.72;;;;;;;8.58;100.00;98479.91;5094157;28;20075;-45
2023/11/04 03:26:19;;;;;;;5.90;3.15;;;;;;;8.68;100.00;98478.19;5093880;28;20653;-46
2023/11/04 03:28:47;;;;;;;5.55;2.90;;;;;;;8.67;100.00;98473.00;5093927;28;20078;-45
2023/11/04 03:31:17;;;;;;;5.18;2.70;;;;;;;8.72;100.00;98454.88;5093918;28;20497;-45
2023/11/04 03:33:45;;;;;;;5.55;2.95;;;;;;;8.95;100.00;98471.63;5093892;28;20059;-45
2023/11/04 03:36:14;;;;;;;5.82;2.70;;;;;;;8.85;100.00;98471.53;5094000;28;20052;-45
2023/11/04 03:38:41;;;;;;;5.95;2.53;;;;;;;8.65;100.00;98473.13;5093877;28;20044;-47
2023/11/04 03:41:09;;;;;;;4.60;2.47;;;;;;;8.86;100.00;98465.22;5093829;28;20093;-47
2023/11/04 03:43:38;;;;;;;5.85;2.90;;;;;;;8.86;100.00;98462.56;5093803;28;20475;-45
2023/11/04 03:46:06;;;;;;;6.25;2.70;;;;;;;8.77;100.00;98463.31;5093916;28;20048;-45
2023/11/04 03:48:37;;;;;;;5.05;3.17;;;;;;;8.80;100.00;98476.38;5093957;28;20131;-47
2023/11/04 03:51:06;;;;;;;9.27;3.10;;;;;;;8.57;100.00;98478.22;5093792;28;20127;-45
2023/11/04 03:53:34;;;;;;;5.55;2.85;;;;;;;8.79;100.00;98483.53;5093637;28;20420;-46
2023/11/04 03:56:03;;;;;;;5.07;2.90;;;;;;;8.76;100.00;98477.59;5093712;28;20073;-46
2023/11/04 03:58:31;;;;;;;6.07;3.17;;;;;;;8.95;100.00;98483.09;5093589;28;20040;-47
2023/11/04 04:01:02;;;;;;;5.38;2.80;;;;;;;8.90;100.00;98485.31;5092161;28;20051;-45
2023/11/04 04:03:30;;;;;;;4.55;2.83;;;;;;;9.03;100.00;98491.31;5093538;28;20048;-47
2023/11/04 04:06:01;;;;;;;4.47;2.90;;;;;;;8.93;100.00;98484.19;5093133;28;20044;-46
2023/11/04 04:08:29;;;;;;;4.63;2.85;;;;;;;9.02;100.00;98489.63;5093134;28;20458;-45
2023/11/04 04:10:58;;;;;;;6.35;3.00;;;;;;;8.96;100.00;98495.41;5093307;28;20044;-46
2023/11/04 04:13:26;;;;;;;5.45;2.53;;;;;;;8.86;100.00;98489.16;5093311;28;20172;-46
2023/11/04 04:15:54;;;;;;;7.85;2.92;;;;;;;8.81;100.00;98513.47;5093907;28;20062;-46
2023/11/04 04:18:23;;;;;;;5.85;3.08;;;;;;;8.97;100.00;98523.69;5094095;28;20068;-46
2023/11/04 04:20:51;;;;;;;6.95;3.50;;;;;;;9.02;100.00;98513.56;5093685;28;20044;-47
2023/11/04 04:23:21;;;;;;;5.32;3.13;;;;;;;8.84;100.00;98507.06;5092863;28;20133;-46
2023/11/04 04:25:49;;;;;;;6.88;3.28;;;;;;;8.52;100.00;98499.84;5093806;28;20063;-45
2023/11/04 04:28:18;;;;;;;6.60;4.20;;;;;;;8.36;100.00;98479.94;5092620;28;20132;-46
2023/11/04 04:30:46;;;;;;;6.15;3.50;;;;;;;8.58;100.00;98490.53;5094894;28;20043;-46
2023/11/04 04:33:15;;;;;;;5.97;3.60;;;;;;;8.76;100.00;98493.53;5094877;28;20420;-47
2023/11/04 04:35:44;;;;;;;5.32;3.22;;;;;;;8.83;100.00;98489.41;5094143;28;20044;-46
2023/11/04 04:38:12;;;;;;;7.05;3.75;;;;;;;8.82;100.00;98488.56;5094001;28;20083;-46
2023/11/04 04:40:42;;;;;;;5.70;3.65;;;;;;;8.96;100.00;98499.91;5094171;28;20046;-46
2023/11/04 04:43:10;;;;;;;5.85;3.85;;;;;;;9.03;100.00;98509.06;5093256;28;20465;-47
2023/11/04 04:45:38;;;;;;;6.72;4.32;;;;;;;8.88;100.00;98503.19;5092843;28;20458;-46
2023/11/04 04:48:06;;;;;;;5.72;3.50;;;;;;;8.93;100.00;98495.69;5092656;28;20052;-45
2023/11/04 04:50:35;;;;;;;7.35;3.63;;;;;;;8.99;100.00;98507.66;5092361;28;20047;-47
2023/11/04 04:53:03;;;;;;;7.43;4.20;;;;;;;9.04;100.00;98519.59;5092381;28;20134;-45
2023/11/04 04:55:32;;;;;;;6.72;3.90;;;;;;;9.17;100.00;98511.47;5092735;28;20075;-45
2023/11/04 04:58:02;;;;;;;7.90;4.00;;;;;;;9.16;100.00;98509.75;5092582;28;20048;-46
2023/11/04 05:00:30;;;;;;;5.30;3.85;;;;;;;8.99;100.00;98519.13;5092424;28;20507;-46
2023/11/04 05:02:59;;;;;;;6.55;3.90;;;;;;;8.87;100.00;98514.78;5092264;28;20453;-47
2023/11/04 05:05:27;;;;;;;6.57;3.85;;;;;;;8.87;100.00;98512.13;5092211;28;20048;-46
2023/11/04 05:07:56;;;;;;;5.85;3.45;;;;;;;8.96;100.00;98506.06;5091796;28;20043;-46
2023/11/04 05:10:24;;;;;;;5.65;3.10;;;;;;;8.52;100.00;98483.91;5092161;28;20067;-46
2023/11/04 05:12:52;;;;;;;6.45;3.28;;;;;;;8.51;100.00;98463.63;5092004;28;20048;-46
2023/11/04 05:15:22;;;;;;;4.68;3.22;;;;;;;8.45;100.00;98469.41;5091871;28;20126;-47
2023/11/04 05:17:51;;;;;;;4.75;3.05;;;;;;;8.58;100.00;98463.97;5091632;28;20144;-47
2023/11/04 05:20:19;;;;;;;5.43;3.22;;;;;;;8.40;100.00;98458.31;5091661;28;20477;-45
2023/11/04 05:22:47;;;;;;;7.35;3.85;;;;;;;8.42;100.00;98464.34;5091596;28;20052;-46
2023/11/04 05:25:16;;;;;;;6.40;4.30;;;;;;;8.38;100.00;98460.25;5091521;28;20135;-45
2023/11/04 05:27:46;;;;;;;5.97;4.05;;;;;;;8.52;100.00;98470.63;5092056;28;20052;-45
2023/11/04 05:30:15;;;;;;;7.05;4.15;;;;;;;8.52;100.00;98465.31;5091675;28;20048;-47
2023/11/04 05:32:44;;;;;;;6.05;3.97;;;;;;;8.49;100.00;98454.94;5091667;28;20072;-46
2023/11/04 05:35:12;;;;;;;8.30;4.05;;;;;;;8.37;100.00;98450.59;5091450;28;20481;-45
2023/11/04 05:37:43;;;;;;;6.10;3.88;;;;;;;8.39;100.00;98448.63;5091080;28;20391;-45
2023/11/04 05:40:11;;;;;;;8.15;4.40;;;;;;;8.29;100.00;98442.34;5090956;28;20131;-46
2023/11/04 05:42:39;;;;;;;6.53;3.80;;;;;;;8.17;100.00;98436.19;5091029;28;20468;-46
2023/11/04 05:45:08;;;;;;;6.05;3.50;;;;;;;8.15;100.00;98437.28;5091081;28;20123;-46
2023/11/04 05:47:37;;;;;;;6.82;3.63;;;;;;;8.37;100.00;98445.28;5091305;28;20079;-45
2023/11/04 05:50:07;;;;;;;4.78;3.08;;;;;;;8.32;100.00;98450.09;5091130;28;20120;-46
2023/11/04 05:52:35;;;;;;;5.22;3.10;;;;;;;8.28;100.00;98453.94;5091217;28;20048;-45
2023/11/04 05:55:04;;;;;;;4.80;2.95;;;;;;;8.32;100.00;98463.38;5091185;28;20048;-46
2023/11/04 05:57:34;;;;;;;4.43;2.80;;;;;;;8.31;100.00;98467.00;5090787;28;20386;-46
2023/11/04 06:00:07;;;;;;;6.47;3.63;;;;;;;8.39;100.00;98467.25;5090847;28;20048;-45
2023/11/04 06:02:37;;;;;;;9.50;4.10;;;;;;;8.31;100.00;98462.53;5091304;28;20044;-46
2023/11/04 06:05:08;;;;;;;5.70;3.60;;;;;;;8.39;100.00;98469.91;5091315;28;20546;-44
2023/11/04 06:07:37;;;;;;;4.70;2.78;;;;;;;8.32;100.00;98471.34;5090824;28;20093;-46
2023/11/04 06:10:08;;;;;;;5.55;3.30;;;;;;;8.45;100.00;98472.06;5090852;28;20069;-46
2023/11/04 06:12:37;;;;;;;5.38;2.78;;;;;;;8.50;100.00;98472.56;5091069;28;20399;-47
2023/11/04 06:15:06;;;;;;;5.72;3.13;;;;;;;8.44;100.00;98473.03;5091118;28;20040;-46
2023/11/04 06:17:34;;;;;;;7.35;2.80;;;;;;;8.49;100.00;98460.25;5090815;28;20048;-45
2023/11/04 06:20:03;;;;;;;5.07;2.45;;;;;;;8.37;100.00;98466.53;5090950;28;20048;-44
2023/11/04 06:22:33;;;;;;;6.15;2.38;;;;;;;8.53;100.00;98472.31;5090871;28;20083;-45
2023/11/04 06:25:02;;;;;;;4.45;2.40;;;;;;;8.72;100.00;98474.34;5090722;28;20054;-45
2023/11/04 06:27:33;;;;;;;3.83;2.30;;;;;;;8.53;100.00;98477.63;5090642;28;20192;-46
2023/11/04 06:30:02;;;;;;;6.68;2.50;;;;;;;8.41;100.00;98483.09;5090797;28;20051;-44
2023/11/04 06:32:30;;;;;;;6.78;2.53;;;;;;;8.32;100.00;98496.09;5090619;28;20039;-44
2023/11/04 06:34:58;;;;;;;4.65;2.33;;;;;;;8.58;100.00;98498.50;5090567;28;20044;-45
2023/11/04 06:37:27;;;;;;;4.75;2.20;;;;;;;8.82;100.00;98498.38;5090500;28;20087;-45
2023/11/04 06:39:57;;;;;;;6.03;2.70;;;;;;;8.84;100.00;98489.28;5090798;28;20047;-46
2023/11/04 06:42:26;;;;;;;5.13;2.67;;;;;;;8.54;100.00;98483.78;5090803;28;20092;-46
2023/11/04 06:44:55;;;;;;;5.35;2.50;;;;;;;8.65;100.00;98485.59;5090363;28;20044;-46
2023/11/04 06:47:23;;;;;;;6.18;2.67;;;;;;;8.54;100.00;98478.47;5090288;28;20048;-46
2023/11/04 06:49:52;;;;;;;6.18;2.60;;;;;;;8.33;100.00;98488.97;5090527;28;20054;-46
2023/11/04 06:52:21;;;;;;;4.78;2.40;;;;;;;8.59;100.00;98494.91;5094539;28;20143;-46
2023/11/04 06:54:49;;;;;;;6.97;2.92;;;;;;;8.69;100.00;98493.22;5094389;28;20185;-46
2023/11/04 06:57:18;;;;;;;7.28;3.05;;;;;;;8.56;100.00;98488.00;5094219;28;20473;-46
2023/11/04 06:59:47;;;;;;;5.93;3.10;;;;;;;8.42;100.00;98498.06;5094171;28;20052;-47
2023/11/04 07:02:15;;;;;;;4.82;2.72;;;;;;;8.43;100.00;98513.03;5094266;28;20075;-46
2023/11/04 07:04:44;;;;;;;7.75;3.70;;;;;;;8.60;100.00;98536.47;5094036;28;20048;-46
2023/11/04 07:07:12;;;;;;;4.90;3.40;;;;;;;8.81;100.00;98528.59;5094216;28;20047;-46
2023/11/04 07:09:40;;;;;;;6.75;3.38;;;;;;;8.74;100.00;98520.25;5094164;28;20125;-46
2023/11/04 07:12:10;;;;;;;6.78;3.35;;;;;;;8.50;100.00;98517.75;5094177;28;20429;-45
2023/11/04 07:14:39;;;;;;;5.38;2.90;;;;;;;8.40;100.00;98532.72;5093997;28;20052;-46
2023/11/04 07:17:08;;;;;;;5.18;2.88;;;;;;;8.59;100.00;98543.59;5093897;28;20055;-47
2023/11/04 07:19:36;;;;;;;6.25;3.30;;;;;;;8.79;100.00;98536.69;5094164;28;20139;-45
2023/11/04 07:22:05;;;;;;;4.95;3.03;;;;;;;8.78;100.00;98550.06;5093637;28;20063;-46
2023/11/04 07:24:35;;;;;;;7.90;3.42;;;;;;;8.87;100.00;98546.69;5093844;28;20516;-46
2023/11/04 07:27:04;;;;;;;8.57;3.47;;;;;;;8.97;100.00;98542.31;5093961;28;20078;-46
2023/11/04 07:29:32;;;;;;;6.63;3.53;;;;;;;9.10;100.00;98561.66;5094122;28;20056;-47
2023/11/04 07:32:04;;;;;;;5.63;3.08;;;;;;;9.20;100.00;98566.22;5094648;28;20097;-45
2023/11/04 07:34:33;;;;;;;5.80;2.92;;;;;;;9.06;100.00;98554.88;5094630;28;20098;-48
2023/11/04 07:37:02;;;;;;;5.68;3.13;;;;;;;9.21;100.00;98551.97;5094536;28;20059;-46
2023/11/04 07:39:31;;;;;;;5.30;3.17;;;;;;;9.31;100.00;98553.75;5094183;28;20143;-45
2023/11/04 07:41:59;;;;;;;4.45;3.05;;;;;;;9.18;100.00;98564.53;5094092;28;20094;-45
2023/11/04 07:44:27;;;;;;;5.80;3.80;;;;;;;8.97;100.00;98555.63;5094411;28;20431;-45
2023/11/04 07:46:59;;;;;;;6.50;3.42;;;;;;;9.03;100.00;98552.47;5093918;28;20044;-47
2023/11/04 07:49:29;;;;;;;7.95;3.80;;;;;;;8.89;100.00;98558.06;5093641;28;20205;-46
2023/11/04 07:51:58;;;;;;;7.05;4.10;;;;;;;9.01;100.00;98551.75;5093184;28;20126;-48
2023/11/04 07:54:26;;;;;;;6.57;3.42;;;;;;;8.98;100.00;98557.34;5093284;28;20051;-46
2023/11/04 07:56:58;;;;;;;9.10;3.22;;;;;;;8.96;100.00;98553.94;5082442;28;20044;-46
2023/11/04 07:59:26;;;;;;;6.07;3.53;;;;;;;9.24;100.00;98552.53;5089997;28;20052;-46
2023/11/04 08:01:54;;;;;;;6.13;3.65;;;;;;;9.42;100.00;98567.00;5072701;28;20044;-45
2023/11/04 08:04:24;;;;;;;7.65;3.40;;;;;;;9.52;100.00;98567.09;5072909;28;20044;-47
2023/11/04 08:06:54;;;;;;;5.10;3.15;;;;;;;9.31;100.00;98556.41;5078762;28;20382;-46
2023/11/04 08:09:23;;;;;;;6.47;3.35;;;;;;;9.13;100.00;98540.13;5092638;28;20448;-46
2023/11/04 08:11:51;;;;;;;11.63;6.18;;;;;;;9.09;100.00;98525.38;5093108;28;20456;-46
2023/11/04 08:14:19;;;;;;;9.45;3.25;;;;;;;9.13;100.00;98524.16;5092934;28;20146;-47
2023/11/04 08:16:47;;;;;;;6.03;3.13;;;;;;;9.33;100.00;98530.50;5079152;28;20040;-46
2023/11/04 08:19:16;;;;;;;6.15;3.13;;;;;;;9.51;100.00;98536.13;5072549;28;20071;-45
2023/11/04 08:21:45;;;;;;;14.45;4.15;;;;;;;9.74;100.00;98529.72;5081934;28;20041;-46
2023/11/04 08:24:15;;;;;;;7.20;3.78;;;;;;;9.61;100.00;98512.25;5092740;28;20476;-49
2023/11/04 08:26:43;;;;;;;6.65;3.63;;;;;;;9.73;100.00;98517.38;5092715;28;20040;-46
2023/11/04 08:29:11;;;;;;;7.28;3.30;;;;;;;9.73;100.00;98514.72;5092448;28;20148;-45
2023/11/04 08:31:40;;;;;;;7.75;3.75;;;;;;;9.94;100.00;98525.41;5092443;28;20059;-47
2023/11/04 08:34:08;;;;;;;7.68;3.28;;;;;;;9.99;100.00;98531.16;5092508;28;20055;-47
2023/11/04 08:36:37;;;;;;;6.38;3.40;;;;;;;10.14;100.00;98537.03;5092273;28;20048;-45
2023/11/04 08:39:06;;;;;;;7.45;3.80;;;;;;;10.20;100.00;98538.31;5092316;28;20048;-46
2023/11/04 08:41:36;;;;;;;6.85;3.50;;;;;;;10.35;100.00;98533.53;5092221;28;20040;-46
2023/11/04 08:44:05;;;;;;;5.90;3.30;;;;;;;10.46;100.00;98525.44;5092118;28;20205;-45
2023/11/04 08:46:33;;;;;;;6.18;3.20;;;;;;;10.56;100.00;98521.81;5092130;28;20047;-47
2023/11/04 08:49:01;;;;;;;5.13;2.97;;;;;;;10.66;100.00;98516.53;5091687;28;20146;-44
2023/11/04 08:51:29;;;;;;;5.32;3.22;;;;;;;10.79;100.00;98514.47;5091610;28;20051;-46
2023/11/04 08:53:58;;;;;;;8.15;2.90;;;;;;;10.86;100.00;98504.94;5091908;28;20481;-48
2023/11/04 08:56:26;;;;;;;6.05;3.00;;;;;;;10.43;100.00;98504.38;5091692;28;20067;-46
2023/11/04 08:58:56;;;;;;;5.75;2.83;;;;;;;10.45;100.00;98499.75;5091589;28;20052;-46
2023/11/04 09:01:25;;;;;;;4.75;2.55;;;;;;;10.62;100.00;98503.63;5091799;28;20135;-45
2023/11/04 09:03:55;;;;;;;7.47;3.00;;;;;;;10.71;100.00;98511.66;5089194;28;20386;-45
2023/11/04 09:06:32;;;;;;;5.10;2.70;;;;;;;10.97;100.00;98513.81;5071291;28;20079;-46
2023/11/04 09:09:01;;;;;;;6.18;2.95;;;;;;;11.06;100.00;98502.31;5089456;28;20060;-45
2023/11/04 09:11:29;;;;;;;5.22;2.60;;;;;;;10.98;100.00;98505.66;5091426;28;20048;-45
2023/11/04 09:13:59;;;;;;;5.60;2.60;;;;;;;11.07;100.00;98504.84;5090751;28;20040;-46
2023/11/04 09:16:32;;;;;;;4.63;2.58;;;;;;;10.71;100.00;98503.66;5091183;28;20091;-48
2023/11/04 09:19:01;;;;;;;3.55;2.10;;;;;;;10.85;100.00;98495.25;5091596;28;20390;-45
2023/11/04 09:21:32;;;;;;;4.78;2.53;;;;;;;10.84;100.00;98496.25;5091269;28;20050;-46
2023/11/04 09:24:01;;;;;;;3.42;2.15;;;;;;;10.92;100.00;98489.38;5091000;28;20073;-46
2023/11/04 09:26:29;;;;;;;3.72;2.20;;;;;;;11.21;100.00;98479.59;5091154;28;20086;-45
2023/11/04 09:28:59;;;;;;;4.53;2.20;;;;;;;11.02;100.00;98469.75;5091075;28;20465;-44
2023/11/04 09:31:27;;;;;;;4.07;2.03;;;;;;;10.80;100.00;98470.81;5091303;28;20044;-46
2023/11/04 09:33:55;;;;;;;4.57;2.20;;;;;;;11.02;100.00;98463.56;5091378;28;20067;-44
2023/11/04 09:36:26;;;;;;;3.85;2.22;;;;;;;10.96;100.00;98464.09;5090884;28;20417;-45
2023/11/04 09:38:54;;;;;;;3.65;2.00;;;;;;;10.98;100.00;98457.66;5091227;28;20098;-45
2023/11/04 09:41:24;;;;;;;5.35;2.25;;;;;;;10.92;100.00;98462.72;5090969;28;20044;-45
2023/11/04 09:43:53;;;;;;;4.90;2.10;;;;;;;11.24;100.00;98451.78;5091046;28;20075;-45
2023/11/04 09:46:23;;;;;;;3.78;2.10;;;;;;;11.24;100.00;98457.13;5090944;28;20048;-46
2023/11/04 09:48:51;;;;;;;4.25;2.13;;;;;;;11.38;100.00;98452.19;5090701;28;20548;-46
2023/11/04 09:51:22;;;;;;;4.07;1.95;;;;;;;11.54;100.00;98448.13;5090669;28;20087;-44
2023/11/04 09:53:54;;;;;;;5.07;2.38;;;;;;;11.59;100.00;98457.41;5090498;28;20079;-44
2023/11/04 09:56:23;;;;;;;4.70;2.00;;;;;;;11.66;100.00;98449.63;5090854;28;20080;-44
2023/11/04 09:58:51;;;;;;;3.85;1.90;;;;;;;11.59;100.00;98451.22;5090903;28;20557;-44
2023/11/04 10:01:20;;;;;;;3.00;1.75;;;;;;;11.51;100.00;98454.59;5090998;28;20131;-46
2023/11/04 10:03:50;;;;;;;3.60;1.58;;;;;;;11.46;100.00;98460.34;5090578;28;20087;-45
2023/11/04 10:06:19;;;;;;;2.58;1.40;;;;;;;11.55;100.00;98463.16;5090401;28;20109;-49
2023/11/04 10:08:48;;;;;;;3.95;1.60;;;;;;;11.66;100.00;98458.50;5090456;28;20048;-44
2023/11/04 10:11:16;;;;;;;3.35;1.63;;;;;;;11.74;100.00;98449.78;5090635;28;20067;-46
2023/11/04 10:13:44;;;;;;;3.25;1.77;;;;;;;11.88;100.00;98440.50;5090656;28;20044;-45
2023/11/04 10:16:13;;;;;;;4.10;1.70;;;;;;;12.01;100.00;98431.19;5090695;28;20083;-46
2023/11/04 10:18:42;;;;;;;4.28;1.88;;;;;;;12.14;100.00;98413.97;5090410;28;20051;-44
2023/11/04 10:21:12;;;;;;;3.85;2.13;;;;;;;11.77;100.00;98414.75;5090413;28;20136;-44
2023/11/04 10:23:41;;;;;;;4.78;2.20;;;;;;;11.69;100.00;98420.00;5090165;28;20495;-45
2023/11/04 10:26:09;;;;;;;3.63;1.73;;;;;;;11.80;100.00;98413.69;5094789;28;20052;-43
2023/11/04 10:28:39;;;;;;;4.40;2.38;;;;;;;11.63;100.00;98409.88;5094653;28;20394;-45
2023/11/04 10:31:08;;;;;;;4.30;1.88;;;;;;;11.83;100.00;98402.69;5094396;28;20059;-44
2023/11/04 10:33:37;;;;;;;3.42;1.85;;;;;;;11.98;100.00;98403.94;5094165;28;20048;-45
2023/11/04 10:36:08;;;;;;;3.47;2.00;;;;;;;12.09;100.00;98405.56;5094528;28;20405;-45
2023/11/04 10:38:41;;;;;;;3.20;1.70;;;;;;;12.21;100.00;98397.22;5094585;28;20040;-45
2023/11/04 10:41:11;;;;;;;3.08;1.70;;;;;;;12.20;100.00;98395.53;5094681;28;20097;-45
2023/11/04 10:43:46;;;;;;;3.83;2.00;;;;;;;12.08;100.00;98393.19;5094482;28;20039;-44
2023/11/04 10:46:20;;;;;;;4.85;2.30;;;;;;;11.95;100.00;98388.16;5094305;28;20106;-45
2023/11/04 10:48:52;;;;;;;3.60;1.90;;;;;;;11.94;100.00;98398.00;5094416;28;20469;-44
2023/11/04 10:51:24;;;;;;;3.95;2.08;;;;;;;11.81;100.00;98402.84;5093998;28;20051;-45
2023/11/04 10:54:07;;;;;;;4.82;2.30;;;;;;;11.95;100.00;98393.50;5094153;28;20077;-44
2023/11/04 10:56:43;;;;;;;4.05;1.83;;;;;;;12.09;100.00;98390.38;5093800;28;20055;-44
2023/11/04 10:59:17;;;;;;;4.13;1.80;;;;;;;12.33;100.00;98387.16;5094160;28;20048;-44
2023/11/04 11:01:50;;;;;;;3.67;2.30;;;;;;;12.41;100.00;98392.59;5093784;28;20431;-44
2023/11/04 11:04:19;;;;;;;6.03;2.10;;;;;;;12.51;100.00;98385.38;5094218;28;20040;-45
2023/11/04 11:06:48;;;;;;;3.63;1.90;;;;;;;12.49;100.00;98381.16;5094078;28;20124;-46
2023/11/04 11:09:20;;;;;;;3.90;2.00;;;;;;;12.49;100.00;98387.34;5093983;28;20085;-45
2023/11/04 11:11:56;;;;;;;5.13;2.05;;;;;;;12.60;100.00;98379.13;5093681;28;20468;-44
2023/11/04 11:14:24;;;;;;;3.92;2.00;;;;;;;12.71;100.00;98369.19;5093889;28;20071;-45
2023/11/04 11:17:00;;;;;;;3.72;2.10;;;;;;;12.71;100.00;98372.72;5094208;28;20135;-46
2023/11/04 11:19:29;;;;;;;3.65;2.08;;;;;;;12.60;100.00;98367.59;5093756;28;20127;-45
2023/11/04 11:21:58;;;;;;;4.05;2.35;;;;;;;12.59;100.00;98372.09;5093161;28;20577;-45
2023/11/04 11:24:28;;;;;;;5.68;1.98;;;;;;;12.52;100.00;98364.81;5093324;28;20047;-45
2023/11/04 11:27:00;;;;;;;4.65;2.30;;;;;;;12.44;100.00;98362.03;5093524;28;20048;-46
2023/11/04 11:29:29;;;;;;;6.35;2.28;;;;;;;12.55;100.00;98349.34;5093536;28;20082;-45
2023/11/04 11:32:06;;;;;;;3.28;2.03;;;;;;;12.64;100.00;98346.72;5093493;28;20505;-48
2023/11/04 11:34:34;;;;;;;4.15;2.17;;;;;;;12.56;100.00;98336.81;5093429;28;20083;-45
2023/11/04 11:37:05;;;;;;;5.20;2.22;;;;;;;12.59;100.00;98340.00;5092869;28;20059;-45
2023/11/04 11:39:35;;;;;;;4.18;2.47;;;;;;;12.71;100.00;98342.44;5093535;28;20070;-45